sensor_id;sensor_type;location;lat;lon;timestamp;P1;durP1;ratioP1;P2;durP2;ratioP2
66256;SDS011;53049;43.446;3.698;2024-03-02T00:02:12;10.02;;;3.05;;
66256;SDS011;53049;43.446;3.698;2024-03-02T00:04:39;12.23;;;3.10;;
66256;SDS011;53049;43.446;3.698;2024-03-02T00:07:05;12.55;;;3.47;;
66256;SDS011;53049;43.446;3.698;2024-03-02T00:09:32;8.75;;;3.65;;
66256;SDS011;53049;43.446;3.698;2024-03-02T00:11:59;10.30;;;3.53;;
66256;SDS011;53049;43.446;3.698;2024-03-02T00:14:25;10.43;;;3.22;;
66256;SDS011;53049;43.446;3.698;2024-03-02T00:16:55;10.45;;;3.55;;
66256;SDS011;53049;43.446;3.698;2024-03-02T00:19:21;10.38;;;3.33;;
66256;SDS011;53049;43.446;3.698;2024-03-02T00:21:47;12.90;;;3.60;;
66256;SDS011;53049;43.446;3.698;2024-03-02T00:26:58;8.98;;;3.50;;
66256;SDS011;53049;43.446;3.698;2024-03-02T00:29:25;8.95;;;3.10;;
66256;SDS011;53049;43.446;3.698;2024-03-02T00:31:52;9.32;;;3.05;;
66256;SDS011;53049;43.446;3.698;2024-03-02T00:34:19;8.68;;;2.78;;
66256;SDS011;53049;43.446;3.698;2024-03-02T00:36:44;9.70;;;2.67;;
66256;SDS011;53049;43.446;3.698;2024-03-02T00:39:11;10.50;;;2.83;;
66256;SDS011;53049;43.446;3.698;2024-03-02T00:41:40;8.80;;;3.08;;
66256;SDS011;53049;43.446;3.698;2024-03-02T00:44:10;9.75;;;3.75;;
66256;SDS011;53049;43.446;3.698;2024-03-02T00:46:41;12.55;;;3.60;;
66256;SDS011;53049;43.446;3.698;2024-03-02T00:49:22;11.40;;;3.83;;
66256;SDS011;53049;43.446;3.698;2024-03-02T00:51:50;12.85;;;3.67;;
66256;SDS011;53049;43.446;3.698;2024-03-02T00:54:21;10.68;;;3.33;;
66256;SDS011;53049;43.446;3.698;2024-03-02T00:56:49;10.70;;;4.13;;
66256;SDS011;53049;43.446;3.698;2024-03-02T00:59:15;7.88;;;3.05;;
66256;SDS011;53049;43.446;3.698;2024-03-02T01:01:41;9.52;;;3.30;;
66256;SDS011;53049;43.446;3.698;2024-03-02T01:04:08;6.68;;;2.75;;
66256;SDS011;53049;43.446;3.698;2024-03-02T01:06:34;9.00;;;3.05;;
66256;SDS011;53049;43.446;3.698;2024-03-02T01:09:00;10.27;;;3.03;;
66256;SDS011;53049;43.446;3.698;2024-03-02T01:11:27;12.20;;;3.20;;
66256;SDS011;53049;43.446;3.698;2024-03-02T01:13:53;9.65;;;2.70;;
66256;SDS011;53049;43.446;3.698;2024-03-02T01:16:19;12.90;;;3.15;;
66256;SDS011;53049;43.446;3.698;2024-03-02T01:18:45;10.43;;;3.00;;
66256;SDS011;53049;43.446;3.698;2024-03-02T01:21:10;8.48;;;2.65;;
66256;SDS011;53049;43.446;3.698;2024-03-02T01:23:36;8.82;;;2.60;;
66256;SDS011;53049;43.446;3.698;2024-03-02T01:26:02;9.77;;;2.60;;
66256;SDS011;53049;43.446;3.698;2024-03-02T01:28:28;11.85;;;2.70;;
66256;SDS011;53049;43.446;3.698;2024-03-02T01:30:54;8.93;;;2.78;;
66256;SDS011;53049;43.446;3.698;2024-03-02T01:33:20;10.93;;;3.10;;
66256;SDS011;53049;43.446;3.698;2024-03-02T01:35:46;11.30;;;3.20;;
66256;SDS011;53049;43.446;3.698;2024-03-02T01:38:12;9.73;;;2.85;;
66256;SDS011;53049;43.446;3.698;2024-03-02T01:40:38;9.48;;;3.08;;
66256;SDS011;53049;43.446;3.698;2024-03-02T01:43:04;10.73;;;3.28;;
66256;SDS011;53049;43.446;3.698;2024-03-02T01:45:31;8.40;;;3.15;;
66256;SDS011;53049;43.446;3.698;2024-03-02T01:47:57;11.02;;;3.60;;
66256;SDS011;53049;43.446;3.698;2024-03-02T01:50:29;12.13;;;3.22;;
66256;SDS011;53049;43.446;3.698;2024-03-02T01:52:59;10.88;;;3.03;;
66256;SDS011;53049;43.446;3.698;2024-03-02T01:55:25;8.88;;;3.50;;
66256;SDS011;53049;43.446;3.698;2024-03-02T01:57:54;10.18;;;3.13;;
66256;SDS011;53049;43.446;3.698;2024-03-02T02:00:20;13.35;;;3.40;;
66256;SDS011;53049;43.446;3.698;2024-03-02T02:02:46;13.98;;;3.63;;
66256;SDS011;53049;43.446;3.698;2024-03-02T02:05:13;12.50;;;3.60;;
66256;SDS011;53049;43.446;3.698;2024-03-02T02:07:40;13.30;;;3.65;;
66256;SDS011;53049;43.446;3.698;2024-03-02T02:10:07;9.75;;;3.10;;
66256;SDS011;53049;43.446;3.698;2024-03-02T02:12:32;14.68;;;3.13;;
66256;SDS011;53049;43.446;3.698;2024-03-02T02:14:58;7.85;;;2.88;;
66256;SDS011;53049;43.446;3.698;2024-03-02T02:17:24;11.25;;;3.15;;
66256;SDS011;53049;43.446;3.698;2024-03-02T02:19:50;10.45;;;3.10;;
66256;SDS011;53049;43.446;3.698;2024-03-02T02:22:15;11.10;;;2.97;;
66256;SDS011;53049;43.446;3.698;2024-03-02T02:24:41;10.30;;;2.65;;
66256;SDS011;53049;43.446;3.698;2024-03-02T02:27:07;7.15;;;2.72;;
66256;SDS011;53049;43.446;3.698;2024-03-02T02:29:34;13.05;;;3.25;;
66256;SDS011;53049;43.446;3.698;2024-03-02T02:32:00;16.58;;;3.28;;
66256;SDS011;53049;43.446;3.698;2024-03-02T02:34:25;10.90;;;3.75;;
66256;SDS011;53049;43.446;3.698;2024-03-02T02:36:51;9.57;;;3.88;;
66256;SDS011;53049;43.446;3.698;2024-03-02T02:39:17;10.80;;;3.17;;
66256;SDS011;53049;43.446;3.698;2024-03-02T02:41:45;14.23;;;3.40;;
66256;SDS011;53049;43.446;3.698;2024-03-02T02:44:11;11.27;;;3.67;;
66256;SDS011;53049;43.446;3.698;2024-03-02T02:46:38;14.13;;;3.60;;
66256;SDS011;53049;43.446;3.698;2024-03-02T02:49:04;11.63;;;3.70;;
66256;SDS011;53049;43.446;3.698;2024-03-02T02:51:30;12.27;;;3.13;;
66256;SDS011;53049;43.446;3.698;2024-03-02T02:53:56;7.22;;;2.83;;
66256;SDS011;53049;43.446;3.698;2024-03-02T02:56:21;8.40;;;2.67;;
66256;SDS011;53049;43.446;3.698;2024-03-02T02:58:47;11.85;;;3.00;;
66256;SDS011;53049;43.446;3.698;2024-03-02T03:01:13;9.48;;;3.03;;
66256;SDS011;53049;43.446;3.698;2024-03-02T03:03:40;9.48;;;2.78;;
66256;SDS011;53049;43.446;3.698;2024-03-02T03:06:05;10.73;;;2.78;;
66256;SDS011;53049;43.446;3.698;2024-03-02T03:08:31;9.65;;;2.50;;
66256;SDS011;53049;43.446;3.698;2024-03-02T03:10:57;13.75;;;3.00;;
66256;SDS011;53049;43.446;3.698;2024-03-02T03:13:22;12.60;;;3.25;;
66256;SDS011;53049;43.446;3.698;2024-03-02T03:15:48;11.80;;;2.80;;
66256;SDS011;53049;43.446;3.698;2024-03-02T03:18:14;14.98;;;3.15;;
66256;SDS011;53049;43.446;3.698;2024-03-02T03:20:39;14.10;;;3.22;;
66256;SDS011;53049;43.446;3.698;2024-03-02T03:23:05;13.45;;;2.88;;
66256;SDS011;53049;43.446;3.698;2024-03-02T03:25:31;9.75;;;2.90;;
66256;SDS011;53049;43.446;3.698;2024-03-02T03:27:56;10.68;;;2.40;;
66256;SDS011;53049;43.446;3.698;2024-03-02T03:30:22;10.95;;;3.05;;
66256;SDS011;53049;43.446;3.698;2024-03-02T03:32:48;11.13;;;3.50;;
66256;SDS011;53049;43.446;3.698;2024-03-02T03:35:14;13.05;;;3.03;;
66256;SDS011;53049;43.446;3.698;2024-03-02T03:37:41;14.95;;;2.95;;
66256;SDS011;53049;43.446;3.698;2024-03-02T03:40:06;9.38;;;2.90;;
66256;SDS011;53049;43.446;3.698;2024-03-02T03:42:38;10.23;;;2.85;;
66256;SDS011;53049;43.446;3.698;2024-03-02T03:45:04;10.70;;;2.55;;
66256;SDS011;53049;43.446;3.698;2024-03-02T03:47:33;14.52;;;2.90;;
66256;SDS011;53049;43.446;3.698;2024-03-02T03:49:59;8.75;;;2.90;;
66256;SDS011;53049;43.446;3.698;2024-03-02T03:52:24;9.80;;;3.13;;
66256;SDS011;53049;43.446;3.698;2024-03-02T03:54:50;12.55;;;3.00;;
66256;SDS011;53049;43.446;3.698;2024-03-02T03:57:16;10.95;;;2.75;;
66256;SDS011;53049;43.446;3.698;2024-03-02T03:59:42;8.15;;;3.05;;
66256;SDS011;53049;43.446;3.698;2024-03-02T04:02:09;11.82;;;3.00;;
66256;SDS011;53049;43.446;3.698;2024-03-02T04:04:36;13.63;;;3.15;;
66256;SDS011;53049;43.446;3.698;2024-03-02T04:07:02;14.15;;;3.05;;
66256;SDS011;53049;43.446;3.698;2024-03-02T04:09:28;12.38;;;3.25;;
66256;SDS011;53049;43.446;3.698;2024-03-02T04:11:53;9.50;;;3.22;;
66256;SDS011;53049;43.446;3.698;2024-03-02T04:14:19;11.65;;;2.95;;
66256;SDS011;53049;43.446;3.698;2024-03-02T04:16:45;12.10;;;3.22;;
66256;SDS011;53049;43.446;3.698;2024-03-02T04:19:10;14.90;;;3.53;;
66256;SDS011;53049;43.446;3.698;2024-03-02T04:21:36;11.80;;;3.08;;
66256;SDS011;53049;43.446;3.698;2024-03-02T04:24:02;10.00;;;2.63;;
66256;SDS011;53049;43.446;3.698;2024-03-02T04:26:28;14.75;;;3.42;;
66256;SDS011;53049;43.446;3.698;2024-03-02T04:28:54;13.02;;;2.95;;
66256;SDS011;53049;43.446;3.698;2024-03-02T04:31:20;7.63;;;2.22;;
66256;SDS011;53049;43.446;3.698;2024-03-02T04:33:45;11.55;;;2.60;;
66256;SDS011;53049;43.446;3.698;2024-03-02T04:36:11;10.10;;;2.88;;
66256;SDS011;53049;43.446;3.698;2024-03-02T04:38:37;8.48;;;3.22;;
66256;SDS011;53049;43.446;3.698;2024-03-02T04:41:06;13.98;;;3.22;;
66256;SDS011;53049;43.446;3.698;2024-03-02T04:43:32;12.02;;;2.75;;
66256;SDS011;53049;43.446;3.698;2024-03-02T04:45:59;14.23;;;2.97;;
66256;SDS011;53049;43.446;3.698;2024-03-02T04:48:25;9.68;;;2.47;;
66256;SDS011;53049;43.446;3.698;2024-03-02T04:50:51;13.27;;;2.45;;
66256;SDS011;53049;43.446;3.698;2024-03-02T04:53:17;9.18;;;2.22;;
66256;SDS011;53049;43.446;3.698;2024-03-02T04:55:44;10.38;;;2.38;;
66256;SDS011;53049;43.446;3.698;2024-03-02T04:58:29;11.32;;;3.00;;
66256;SDS011;53049;43.446;3.698;2024-03-02T05:00:55;8.15;;;2.75;;
66256;SDS011;53049;43.446;3.698;2024-03-02T05:03:21;11.02;;;2.58;;
66256;SDS011;53049;43.446;3.698;2024-03-02T05:05:47;9.00;;;2.65;;
66256;SDS011;53049;43.446;3.698;2024-03-02T05:08:12;9.88;;;2.50;;
66256;SDS011;53049;43.446;3.698;2024-03-02T05:10:38;13.45;;;3.00;;
66256;SDS011;53049;43.446;3.698;2024-03-02T05:13:04;10.65;;;2.97;;
66256;SDS011;53049;43.446;3.698;2024-03-02T05:15:29;12.95;;;2.80;;
66256;SDS011;53049;43.446;3.698;2024-03-02T05:17:55;12.60;;;2.90;;
66256;SDS011;53049;43.446;3.698;2024-03-02T05:20:22;11.52;;;2.90;;
66256;SDS011;53049;43.446;3.698;2024-03-02T05:22:47;10.55;;;2.55;;
66256;SDS011;53049;43.446;3.698;2024-03-02T05:25:14;12.23;;;3.13;;
66256;SDS011;53049;43.446;3.698;2024-03-02T05:27:40;11.65;;;3.20;;
66256;SDS011;53049;43.446;3.698;2024-03-02T05:30:06;9.05;;;3.13;;
66256;SDS011;53049;43.446;3.698;2024-03-02T05:32:33;17.00;;;3.47;;
66256;SDS011;53049;43.446;3.698;2024-03-02T05:34:58;13.10;;;3.55;;
66256;SDS011;53049;43.446;3.698;2024-03-02T05:37:24;12.95;;;2.90;;
66256;SDS011;53049;43.446;3.698;2024-03-02T05:39:50;15.02;;;3.25;;
66256;SDS011;53049;43.446;3.698;2024-03-02T05:42:15;12.32;;;3.08;;
66256;SDS011;53049;43.446;3.698;2024-03-02T05:44:43;14.65;;;3.30;;
66256;SDS011;53049;43.446;3.698;2024-03-02T05:47:09;15.77;;;3.45;;
66256;SDS011;53049;43.446;3.698;2024-03-02T05:49:35;14.02;;;3.22;;
66256;SDS011;53049;43.446;3.698;2024-03-02T05:52:01;14.55;;;3.33;;
66256;SDS011;53049;43.446;3.698;2024-03-02T05:54:26;10.77;;;2.97;;
66256;SDS011;53049;43.446;3.698;2024-03-02T05:56:52;8.70;;;3.17;;
66256;SDS011;53049;43.446;3.698;2024-03-02T05:59:18;9.90;;;3.58;;
66256;SDS011;53049;43.446;3.698;2024-03-02T06:01:44;10.98;;;3.28;;
66256;SDS011;53049;43.446;3.698;2024-03-02T06:04:09;11.27;;;3.30;;
66256;SDS011;53049;43.446;3.698;2024-03-02T06:06:36;10.23;;;3.20;;
66256;SDS011;53049;43.446;3.698;2024-03-02T06:09:02;12.10;;;3.22;;
66256;SDS011;53049;43.446;3.698;2024-03-02T06:11:32;12.48;;;3.70;;
66256;SDS011;53049;43.446;3.698;2024-03-02T06:13:58;15.77;;;3.30;;
66256;SDS011;53049;43.446;3.698;2024-03-02T06:16:24;14.25;;;3.53;;
66256;SDS011;53049;43.446;3.698;2024-03-02T06:18:50;13.00;;;3.60;;
66256;SDS011;53049;43.446;3.698;2024-03-02T06:21:16;16.05;;;3.88;;
66256;SDS011;53049;43.446;3.698;2024-03-02T06:23:43;11.63;;;3.20;;
66256;SDS011;53049;43.446;3.698;2024-03-02T06:26:09;13.57;;;3.78;;
66256;SDS011;53049;43.446;3.698;2024-03-02T06:28:35;13.18;;;3.42;;
66256;SDS011;53049;43.446;3.698;2024-03-02T06:31:01;17.10;;;4.15;;
66256;SDS011;53049;43.446;3.698;2024-03-02T06:33:27;10.93;;;3.33;;
66256;SDS011;53049;43.446;3.698;2024-03-02T06:35:53;14.93;;;4.20;;
66256;SDS011;53049;43.446;3.698;2024-03-02T06:38:19;13.73;;;4.07;;
66256;SDS011;53049;43.446;3.698;2024-03-02T06:40:45;12.48;;;3.78;;
66256;SDS011;53049;43.446;3.698;2024-03-02T06:43:11;10.23;;;3.50;;
66256;SDS011;53049;43.446;3.698;2024-03-02T06:45:36;16.50;;;4.18;;
66256;SDS011;53049;43.446;3.698;2024-03-02T06:48:02;18.85;;;4.60;;
66256;SDS011;53049;43.446;3.698;2024-03-02T06:50:28;16.65;;;4.60;;
66256;SDS011;53049;43.446;3.698;2024-03-02T06:52:54;17.80;;;4.35;;
66256;SDS011;53049;43.446;3.698;2024-03-02T06:55:23;16.45;;;4.95;;
66256;SDS011;53049;43.446;3.698;2024-03-02T06:57:51;13.23;;;3.67;;
66256;SDS011;53049;43.446;3.698;2024-03-02T07:00:17;14.65;;;3.70;;
66256;SDS011;53049;43.446;3.698;2024-03-02T07:02:45;14.20;;;3.80;;
66256;SDS011;53049;43.446;3.698;2024-03-02T07:05:11;14.38;;;3.83;;
66256;SDS011;53049;43.446;3.698;2024-03-02T07:07:37;12.50;;;3.92;;
66256;SDS011;53049;43.446;3.698;2024-03-02T07:10:06;13.77;;;3.75;;
66256;SDS011;53049;43.446;3.698;2024-03-02T07:12:35;14.85;;;4.13;;
66256;SDS011;53049;43.446;3.698;2024-03-02T07:15:01;12.95;;;4.25;;
66256;SDS011;53049;43.446;3.698;2024-03-02T07:17:27;15.80;;;4.20;;
66256;SDS011;53049;43.446;3.698;2024-03-02T07:19:53;20.88;;;4.03;;
66256;SDS011;53049;43.446;3.698;2024-03-02T07:22:19;12.07;;;3.92;;
66256;SDS011;53049;43.446;3.698;2024-03-02T07:24:45;13.43;;;3.78;;
66256;SDS011;53049;43.446;3.698;2024-03-02T07:27:11;12.05;;;3.50;;
66256;SDS011;53049;43.446;3.698;2024-03-02T07:29:38;10.00;;;3.45;;
66256;SDS011;53049;43.446;3.698;2024-03-02T07:32:05;15.82;;;4.22;;
66256;SDS011;53049;43.446;3.698;2024-03-02T07:34:31;10.50;;;3.28;;
66256;SDS011;53049;43.446;3.698;2024-03-02T07:36:57;15.55;;;3.63;;
66256;SDS011;53049;43.446;3.698;2024-03-02T07:39:23;15.38;;;3.97;;
66256;SDS011;53049;43.446;3.698;2024-03-02T07:41:49;12.95;;;3.67;;
66256;SDS011;53049;43.446;3.698;2024-03-02T07:44:15;10.77;;;4.07;;
66256;SDS011;53049;43.446;3.698;2024-03-02T07:46:41;14.27;;;4.30;;
66256;SDS011;53049;43.446;3.698;2024-03-02T07:49:17;13.30;;;4.28;;
66256;SDS011;53049;43.446;3.698;2024-03-02T07:51:45;13.90;;;3.67;;
66256;SDS011;53049;43.446;3.698;2024-03-02T07:54:11;18.52;;;4.20;;
66256;SDS011;53049;43.446;3.698;2024-03-02T07:56:37;12.32;;;4.18;;
66256;SDS011;53049;43.446;3.698;2024-03-02T07:59:03;15.05;;;4.28;;
66256;SDS011;53049;43.446;3.698;2024-03-02T08:01:29;14.50;;;4.25;;
66256;SDS011;53049;43.446;3.698;2024-03-02T08:03:58;13.80;;;4.15;;
66256;SDS011;53049;43.446;3.698;2024-03-02T08:06:30;12.45;;;4.97;;
66256;SDS011;53049;43.446;3.698;2024-03-02T08:08:57;14.45;;;4.63;;
66256;SDS011;53049;43.446;3.698;2024-03-02T08:11:24;14.65;;;4.28;;
66256;SDS011;53049;43.446;3.698;2024-03-02T08:13:49;15.15;;;4.22;;
66256;SDS011;53049;43.446;3.698;2024-03-02T08:16:16;14.35;;;4.45;;
66256;SDS011;53049;43.446;3.698;2024-03-02T08:18:46;18.70;;;4.22;;
66256;SDS011;53049;43.446;3.698;2024-03-02T08:21:12;14.85;;;4.50;;
66256;SDS011;53049;43.446;3.698;2024-03-02T08:23:38;17.30;;;4.55;;
66256;SDS011;53049;43.446;3.698;2024-03-02T08:26:06;19.33;;;5.00;;
66256;SDS011;53049;43.446;3.698;2024-03-02T08:28:32;14.43;;;4.43;;
66256;SDS011;53049;43.446;3.698;2024-03-02T08:30:58;16.60;;;4.55;;
66256;SDS011;53049;43.446;3.698;2024-03-02T08:33:23;10.95;;;4.28;;
66256;SDS011;53049;43.446;3.698;2024-03-02T08:35:49;16.48;;;4.45;;
66256;SDS011;53049;43.446;3.698;2024-03-02T08:38:15;15.82;;;4.15;;
66256;SDS011;53049;43.446;3.698;2024-03-02T08:40:41;15.80;;;4.68;;
66256;SDS011;53049;43.446;3.698;2024-03-02T08:43:06;16.02;;;4.88;;
66256;SDS011;53049;43.446;3.698;2024-03-02T08:45:32;17.73;;;5.00;;
66256;SDS011;53049;43.446;3.698;2024-03-02T08:47:59;18.08;;;5.00;;
66256;SDS011;53049;43.446;3.698;2024-03-02T08:50:25;15.18;;;4.68;;
66256;SDS011;53049;43.446;3.698;2024-03-02T08:52:51;15.45;;;5.20;;
66256;SDS011;53049;43.446;3.698;2024-03-02T08:55:16;21.88;;;5.03;;
66256;SDS011;53049;43.446;3.698;2024-03-02T08:57:42;19.67;;;4.97;;
66256;SDS011;53049;43.446;3.698;2024-03-02T09:00:08;21.00;;;4.78;;
66256;SDS011;53049;43.446;3.698;2024-03-02T09:02:34;21.17;;;4.78;;
66256;SDS011;53049;43.446;3.698;2024-03-02T09:05:00;23.08;;;4.65;;
66256;SDS011;53049;43.446;3.698;2024-03-02T09:07:26;17.65;;;4.18;;
66256;SDS011;53049;43.446;3.698;2024-03-02T09:09:51;21.65;;;5.45;;
66256;SDS011;53049;43.446;3.698;2024-03-02T09:12:17;19.05;;;5.85;;
66256;SDS011;53049;43.446;3.698;2024-03-02T09:14:43;17.25;;;5.40;;
66256;SDS011;53049;43.446;3.698;2024-03-02T09:17:09;17.27;;;5.30;;
66256;SDS011;53049;43.446;3.698;2024-03-02T09:19:36;16.30;;;4.70;;
66256;SDS011;53049;43.446;3.698;2024-03-02T09:22:02;15.57;;;4.72;;
66256;SDS011;53049;43.446;3.698;2024-03-02T09:24:30;18.98;;;5.15;;
66256;SDS011;53049;43.446;3.698;2024-03-02T09:26:56;23.05;;;5.40;;
66256;SDS011;53049;43.446;3.698;2024-03-02T09:29:22;14.15;;;4.57;;
66256;SDS011;53049;43.446;3.698;2024-03-02T09:31:47;12.07;;;5.15;;
66256;SDS011;53049;43.446;3.698;2024-03-02T09:34:14;16.88;;;4.53;;
66256;SDS011;53049;43.446;3.698;2024-03-02T09:36:40;21.13;;;6.00;;
66256;SDS011;53049;43.446;3.698;2024-03-02T09:39:09;12.85;;;4.43;;
66256;SDS011;53049;43.446;3.698;2024-03-02T09:41:36;16.30;;;3.47;;
66256;SDS011;53049;43.446;3.698;2024-03-02T09:44:02;6.55;;;3.00;;
66256;SDS011;53049;43.446;3.698;2024-03-02T09:46:29;8.55;;;3.30;;
66256;SDS011;53049;43.446;3.698;2024-03-02T09:48:54;9.75;;;3.15;;
66256;SDS011;53049;43.446;3.698;2024-03-02T09:51:20;7.15;;;2.83;;
66256;SDS011;53049;43.446;3.698;2024-03-02T09:53:47;7.85;;;2.53;;
66256;SDS011;53049;43.446;3.698;2024-03-02T09:56:13;8.00;;;2.85;;
66256;SDS011;53049;43.446;3.698;2024-03-02T09:58:40;9.98;;;2.70;;
66256;SDS011;53049;43.446;3.698;2024-03-02T10:01:06;6.78;;;2.47;;
66256;SDS011;53049;43.446;3.698;2024-03-02T10:03:33;7.13;;;2.60;;
66256;SDS011;53049;43.446;3.698;2024-03-02T10:08:44;7.07;;;2.63;;
66256;SDS011;53049;43.446;3.698;2024-03-02T10:11:09;7.70;;;2.70;;
66256;SDS011;53049;43.446;3.698;2024-03-02T10:13:35;7.53;;;3.85;;
66256;SDS011;53049;43.446;3.698;2024-03-02T10:16:11;9.65;;;2.97;;
66256;SDS011;53049;43.446;3.698;2024-03-02T10:18:37;6.32;;;2.70;;
66256;SDS011;53049;43.446;3.698;2024-03-02T10:21:36;9.23;;;3.10;;
66256;SDS011;53049;43.446;3.698;2024-03-02T10:23:57;5.10;;;2.45;;
66256;SDS011;53049;43.446;3.698;2024-03-02T10:26:37;7.88;;;2.58;;
66256;SDS011;53049;43.446;3.698;2024-03-02T10:29:06;10.10;;;2.60;;
66256;SDS011;53049;43.446;3.698;2024-03-02T10:31:56;9.00;;;2.70;;
66256;SDS011;53049;43.446;3.698;2024-03-02T10:34:24;7.28;;;3.00;;
66256;SDS011;53049;43.446;3.698;2024-03-02T10:36:49;8.68;;;3.05;;
66256;SDS011;53049;43.446;3.698;2024-03-02T10:39:27;7.50;;;2.60;;
66256;SDS011;53049;43.446;3.698;2024-03-02T10:41:54;7.47;;;2.92;;
66256;SDS011;53049;43.446;3.698;2024-03-02T10:44:42;5.28;;;2.65;;
66256;SDS011;53049;43.446;3.698;2024-03-02T10:47:40;5.28;;;2.42;;
66256;SDS011;53049;43.446;3.698;2024-03-02T10:50:07;6.63;;;2.40;;
66256;SDS011;53049;43.446;3.698;2024-03-02T10:52:43;8.60;;;2.63;;
66256;SDS011;53049;43.446;3.698;2024-03-02T10:55:35;7.97;;;2.50;;
66256;SDS011;53049;43.446;3.698;2024-03-02T10:58:06;4.35;;;2.03;;
66256;SDS011;53049;43.446;3.698;2024-03-02T11:00:45;6.07;;;2.47;;
66256;SDS011;53049;43.446;3.698;2024-03-02T11:03:39;5.82;;;2.40;;
66256;SDS011;53049;43.446;3.698;2024-03-02T11:11:48;9.65;;;2.85;;
66256;SDS011;53049;43.446;3.698;2024-03-02T11:14:21;6.13;;;2.53;;
66256;SDS011;53049;43.446;3.698;2024-03-02T11:16:50;8.02;;;2.95;;
66256;SDS011;53049;43.446;3.698;2024-03-02T11:19:17;7.10;;;2.72;;
66256;SDS011;53049;43.446;3.698;2024-03-02T11:21:46;9.70;;;2.33;;
66256;SDS011;53049;43.446;3.698;2024-03-02T11:35:34;7.47;;;2.40;;
66256;SDS011;53049;43.446;3.698;2024-03-02T11:38:32;8.23;;;2.85;;
66256;SDS011;53049;43.446;3.698;2024-03-02T11:41:02;9.40;;;2.70;;
66256;SDS011;53049;43.446;3.698;2024-03-02T11:43:32;11.13;;;3.30;;
66256;SDS011;53049;43.446;3.698;2024-03-02T11:46:20;9.40;;;2.95;;
66256;SDS011;53049;43.446;3.698;2024-03-02T11:49:22;11.35;;;3.40;;
66256;SDS011;53049;43.446;3.698;2024-03-02T11:52:03;14.60;;;3.40;;
66256;SDS011;53049;43.446;3.698;2024-03-02T11:54:35;10.95;;;3.42;;
66256;SDS011;53049;43.446;3.698;2024-03-02T11:57:18;11.88;;;3.42;;
66256;SDS011;53049;43.446;3.698;2024-03-02T11:59:58;13.00;;;3.63;;
66256;SDS011;53049;43.446;3.698;2024-03-02T12:05:15;13.88;;;3.15;;
66256;SDS011;53049;43.446;3.698;2024-03-02T12:11:00;11.10;;;3.35;;
66256;SDS011;53049;43.446;3.698;2024-03-02T12:13:53;12.60;;;3.30;;
66256;SDS011;53049;43.446;3.698;2024-03-02T12:16:24;11.38;;;3.70;;
66256;SDS011;53049;43.446;3.698;2024-03-02T12:18:55;12.35;;;4.60;;
66256;SDS011;53049;43.446;3.698;2024-03-02T12:25:02;11.88;;;3.78;;
66256;SDS011;53049;43.446;3.698;2024-03-02T12:27:28;12.40;;;3.47;;
66256;SDS011;53049;43.446;3.698;2024-03-02T12:30:02;10.98;;;3.42;;
66256;SDS011;53049;43.446;3.698;2024-03-02T12:35:52;17.75;;;4.18;;
66256;SDS011;53049;43.446;3.698;2024-03-02T12:38:43;18.65;;;4.88;;
66256;SDS011;53049;43.446;3.698;2024-03-02T12:41:10;19.05;;;4.20;;
66256;SDS011;53049;43.446;3.698;2024-03-02T12:43:41;13.63;;;4.10;;
66256;SDS011;53049;43.446;3.698;2024-03-02T12:46:28;18.77;;;5.80;;
66256;SDS011;53049;43.446;3.698;2024-03-02T12:49:21;14.88;;;4.53;;
66256;SDS011;53049;43.446;3.698;2024-03-02T12:51:47;15.45;;;4.40;;
66256;SDS011;53049;43.446;3.698;2024-03-02T12:54:21;13.15;;;4.47;;
66256;SDS011;53049;43.446;3.698;2024-03-02T12:57:33;15.55;;;4.55;;
66256;SDS011;53049;43.446;3.698;2024-03-02T13:00:30;18.08;;;4.45;;
66256;SDS011;53049;43.446;3.698;2024-03-02T13:03:28;14.50;;;3.67;;
66256;SDS011;53049;43.446;3.698;2024-03-02T13:05:54;18.02;;;4.85;;
66256;SDS011;53049;43.446;3.698;2024-03-02T13:11:12;16.95;;;4.47;;
66256;SDS011;53049;43.446;3.698;2024-03-02T13:16:52;19.67;;;4.80;;
66256;SDS011;53049;43.446;3.698;2024-03-02T13:19:18;17.17;;;4.85;;
66256;SDS011;53049;43.446;3.698;2024-03-02T13:21:45;18.25;;;4.32;;
66256;SDS011;53049;43.446;3.698;2024-03-02T13:24:12;19.67;;;4.65;;
66256;SDS011;53049;43.446;3.698;2024-03-02T13:26:37;18.63;;;4.63;;
66256;SDS011;53049;43.446;3.698;2024-03-02T13:29:05;21.10;;;5.05;;
66256;SDS011;53049;43.446;3.698;2024-03-02T13:31:38;17.77;;;4.88;;
66256;SDS011;53049;43.446;3.698;2024-03-02T13:34:40;21.42;;;6.03;;
66256;SDS011;53049;43.446;3.698;2024-03-02T13:37:11;22.55;;;5.63;;
66256;SDS011;53049;43.446;3.698;2024-03-02T13:39:43;17.65;;;4.50;;
66256;SDS011;53049;43.446;3.698;2024-03-02T13:42:09;16.67;;;4.65;;
66256;SDS011;53049;43.446;3.698;2024-03-02T13:44:37;17.45;;;4.57;;
66256;SDS011;53049;43.446;3.698;2024-03-02T13:47:03;19.17;;;4.35;;
66256;SDS011;53049;43.446;3.698;2024-03-02T13:49:29;19.70;;;4.50;;
66256;SDS011;53049;43.446;3.698;2024-03-02T13:52:00;18.65;;;4.80;;
66256;SDS011;53049;43.446;3.698;2024-03-02T13:54:28;16.48;;;4.63;;
66256;SDS011;53049;43.446;3.698;2024-03-02T13:56:55;16.10;;;4.20;;
66256;SDS011;53049;43.446;3.698;2024-03-02T13:59:22;18.02;;;4.90;;
66256;SDS011;53049;43.446;3.698;2024-03-02T14:01:48;23.92;;;5.05;;
66256;SDS011;53049;43.446;3.698;2024-03-02T14:04:14;21.80;;;4.65;;
66256;SDS011;53049;43.446;3.698;2024-03-02T14:06:40;16.02;;;4.75;;
66256;SDS011;53049;43.446;3.698;2024-03-02T14:09:08;20.98;;;4.40;;
66256;SDS011;53049;43.446;3.698;2024-03-02T14:11:34;21.95;;;5.28;;
66256;SDS011;53049;43.446;3.698;2024-03-02T14:14:00;21.77;;;5.00;;
66256;SDS011;53049;43.446;3.698;2024-03-02T14:16:27;20.50;;;4.63;;
66256;SDS011;53049;43.446;3.698;2024-03-02T14:18:53;16.27;;;4.53;;
66256;SDS011;53049;43.446;3.698;2024-03-02T14:21:19;27.25;;;5.03;;
66256;SDS011;53049;43.446;3.698;2024-03-02T14:23:45;17.83;;;5.10;;
66256;SDS011;53049;43.446;3.698;2024-03-02T14:26:10;17.63;;;5.18;;
66256;SDS011;53049;43.446;3.698;2024-03-02T14:28:36;20.23;;;5.25;;
66256;SDS011;53049;43.446;3.698;2024-03-02T14:31:02;20.23;;;4.95;;
66256;SDS011;53049;43.446;3.698;2024-03-02T14:33:28;23.00;;;5.55;;
66256;SDS011;53049;43.446;3.698;2024-03-02T14:35:53;21.88;;;5.75;;
66256;SDS011;53049;43.446;3.698;2024-03-02T14:38:19;20.58;;;5.57;;
66256;SDS011;53049;43.446;3.698;2024-03-02T14:40:45;23.55;;;5.40;;
66256;SDS011;53049;43.446;3.698;2024-03-02T14:43:11;25.88;;;7.05;;
66256;SDS011;53049;43.446;3.698;2024-03-02T14:45:36;23.25;;;5.93;;
66256;SDS011;53049;43.446;3.698;2024-03-02T14:48:02;25.38;;;5.82;;
66256;SDS011;53049;43.446;3.698;2024-03-02T14:50:29;23.17;;;5.70;;
66256;SDS011;53049;43.446;3.698;2024-03-02T14:52:54;28.27;;;6.90;;
66256;SDS011;53049;43.446;3.698;2024-03-02T14:55:22;28.13;;;7.35;;
66256;SDS011;53049;43.446;3.698;2024-03-02T14:57:48;26.80;;;6.07;;
66256;SDS011;53049;43.446;3.698;2024-03-02T15:00:14;24.23;;;6.10;;
66256;SDS011;53049;43.446;3.698;2024-03-02T15:02:40;24.88;;;6.57;;
66256;SDS011;53049;43.446;3.698;2024-03-02T15:05:06;20.33;;;5.47;;
66256;SDS011;53049;43.446;3.698;2024-03-02T15:07:32;25.65;;;6.28;;
66256;SDS011;53049;43.446;3.698;2024-03-02T15:09:58;26.25;;;7.72;;
66256;SDS011;53049;43.446;3.698;2024-03-02T15:12:24;24.55;;;6.80;;
66256;SDS011;53049;43.446;3.698;2024-03-02T15:14:49;25.65;;;6.63;;
66256;SDS011;53049;43.446;3.698;2024-03-02T15:17:15;24.83;;;6.47;;
66256;SDS011;53049;43.446;3.698;2024-03-02T15:19:42;30.25;;;6.38;;
66256;SDS011;53049;43.446;3.698;2024-03-02T15:22:08;28.67;;;7.10;;
66256;SDS011;53049;43.446;3.698;2024-03-02T15:24:34;23.98;;;6.18;;
66256;SDS011;53049;43.446;3.698;2024-03-02T15:27:00;24.17;;;6.82;;